메인 페이지
METAR-TAF:

METAR-TAF

공항 :

Mosinee, 위스콘신, 미국

위도: 44-47N, 경도: 089-40W, 고도: 389m

현재 날씨관측

예보는 29분 전, 11:15시(UTC)에 발표되었습니다.
북서3kt
온도 -8°C
습도 85%
기압 1014 hPa
시정: 16.1km
고도 3400ft 상공 흐림

METAR: KCWA 131115Z AUTO 32003KT 10SM OVC034 M08/M10 A2994 RMK AO2

시각: 05:44 (11:44 UTC)

예보

예보는 14분 전, 11:30시(UTC)에 발표되었습니다.
예보 대상 시간: 13일 12시부터 14일 12시까지 (UTC)
여러 방향의 바람 3kt
시정: 10km
고도 3500ft 상공 흐림
13일 1400시부터 (UTC)
여러 방향의 바람 3kt
시정: 10km
고도 2500ft 상공 흐림
13일 1600시부터 (UTC)
여러 방향의 바람 3kt
시정: 10km
고도 1500ft 상공 흐림
13일 2100시부터 (UTC)
여러 방향의 바람 3kt
시정: 9.7km
고도 1500ft 상공 흐림
약한소낙눈
일시적
13일 22시부터 14일 02시까지 (UTC)
시정: 3.2km
약한소낙눈
14일 0400시부터 (UTC)
서북서5kt
시정: 6.4km
고도 900ft 상공 흐림
(약한) 결빙, 이슬비, 눈, 박무

TAF: KCWA 131130Z 1312/1412 VRB03KT P6SM OVC035 FM131400 VRB03KT P6SM OVC025 FM131600 VRB03KT P6SM OVC015 FM132100 VRB03KT 6SM -SHSN OVC015 TEMPO 1322/1402 2SM -SHSN FM140400 29005KT 4SM -FZDZSN BR OVC009

4,000개 이상의 공항 관측 자료 및 예보 (METAR 및 TAF 보고).

지도상에서 검색 가능한 기상관측소가 노란 점과 빨간 점으로 표시되어 있습니다.

기상관측소 명을 보려면 표시 위로 마우스를 이동하세요.

날씨 관측과 예보를 보려면 클릭하세요.

지도 변경 : 확대하려면 엑스 표시가 있는 녹색 버튼, 축소하려면 빼기 표시가 있는 녹색 버튼, 다음 페이지의 지도를 보려면 녹색 화살표를 클릭하세요.


METAR-TAF: